sensor_id;sensor_type;location;lat;lon;timestamp;temperature;humidity
27016;DHT22;14557;0.000;0.000;2023-03-23T00:01:51;21.50;63.70
27016;DHT22;14557;0.000;0.000;2023-03-23T00:04:17;21.40;62.30
27016;DHT22;14557;0.000;0.000;2023-03-23T00:06:43;21.40;61.90
27016;DHT22;14557;0.000;0.000;2023-03-23T00:09:11;21.40;61.80
27016;DHT22;14557;0.000;0.000;2023-03-23T00:11:36;21.40;61.50
27016;DHT22;14557;0.000;0.000;2023-03-23T00:14:02;21.40;61.30
27016;DHT22;14557;0.000;0.000;2023-03-23T00:16:32;21.40;61.20
27016;DHT22;14557;0.000;0.000;2023-03-23T00:18:59;21.40;63.00
27016;DHT22;14557;0.000;0.000;2023-03-23T00:21:26;21.40;65.70
27016;DHT22;14557;0.000;0.000;2023-03-23T00:24:05;21.40;65.80
27016;DHT22;14557;0.000;0.000;2023-03-23T00:26:32;21.30;65.20
27016;DHT22;14557;0.000;0.000;2023-03-23T00:28:59;21.30;65.30
27016;DHT22;14557;0.000;0.000;2023-03-23T00:31:26;21.30;65.00
27016;DHT22;14557;0.000;0.000;2023-03-23T00:33:57;21.30;64.40
27016;DHT22;14557;0.000;0.000;2023-03-23T00:36:23;21.30;64.20
27016;DHT22;14557;0.000;0.000;2023-03-23T00:38:49;21.30;64.10
27016;DHT22;14557;0.000;0.000;2023-03-23T00:41:15;21.30;63.90
27016;DHT22;14557;0.000;0.000;2023-03-23T00:43:40;21.30;64.00
27016;DHT22;14557;0.000;0.000;2023-03-23T00:46:06;21.30;63.80
27016;DHT22;14557;0.000;0.000;2023-03-23T00:48:37;21.30;63.60
27016;DHT22;14557;0.000;0.000;2023-03-23T00:51:10;21.30;63.60
27016;DHT22;14557;0.000;0.000;2023-03-23T00:53:36;21.20;63.50
27016;DHT22;14557;0.000;0.000;2023-03-23T00:56:01;21.20;63.30
27016;DHT22;14557;0.000;0.000;2023-03-23T00:58:27;21.20;63.20
27016;DHT22;14557;0.000;0.000;2023-03-23T01:00:53;21.20;63.60
27016;DHT22;14557;0.000;0.000;2023-03-23T01:03:18;21.20;63.00
27016;DHT22;14557;0.000;0.000;2023-03-23T01:05:45;21.20;62.70
27016;DHT22;14557;0.000;0.000;2023-03-23T01:08:12;21.20;62.40
27016;DHT22;14557;0.000;0.000;2023-03-23T01:10:38;21.20;62.40
27016;DHT22;14557;0.000;0.000;2023-03-23T01:13:05;21.20;62.40
27016;DHT22;14557;0.000;0.000;2023-03-23T01:15:31;21.10;62.20
27016;DHT22;14557;0.000;0.000;2023-03-23T01:17:57;21.10;62.10
27016;DHT22;14557;0.000;0.000;2023-03-23T01:20:23;21.10;61.80
27016;DHT22;14557;0.000;0.000;2023-03-23T01:22:48;21.10;61.80
27016;DHT22;14557;0.000;0.000;2023-03-23T01:25:14;21.10;61.80
27016;DHT22;14557;0.000;0.000;2023-03-23T01:27:40;21.10;61.70
27016;DHT22;14557;0.000;0.000;2023-03-23T01:30:06;21.10;61.80
27016;DHT22;14557;0.000;0.000;2023-03-23T01:32:32;21.10;61.90
27016;DHT22;14557;0.000;0.000;2023-03-23T01:34:58;21.10;61.60
27016;DHT22;14557;0.000;0.000;2023-03-23T01:37:24;21.00;61.30
27016;DHT22;14557;0.000;0.000;2023-03-23T01:39:52;21.00;61.20
27016;DHT22;14557;0.000;0.000;2023-03-23T01:42:20;21.00;61.00
27016;DHT22;14557;0.000;0.000;2023-03-23T01:47:11;21.00;60.80
27016;DHT22;14557;0.000;0.000;2023-03-23T01:49:37;21.00;61.70
27016;DHT22;14557;0.000;0.000;2023-03-23T01:52:07;21.00;61.00
27016;DHT22;14557;0.000;0.000;2023-03-23T01:54:35;21.00;60.90
27016;DHT22;14557;0.000;0.000;2023-03-23T01:57:04;21.00;60.70
27016;DHT22;14557;0.000;0.000;2023-03-23T01:59:31;21.00;60.40
27016;DHT22;14557;0.000;0.000;2023-03-23T02:01:58;21.00;60.40
27016;DHT22;14557;0.000;0.000;2023-03-23T02:04:26;20.90;60.20
27016;DHT22;14557;0.000;0.000;2023-03-23T02:06:52;20.90;60.40
27016;DHT22;14557;0.000;0.000;2023-03-23T02:09:18;20.90;60.50
27016;DHT22;14557;0.000;0.000;2023-03-23T02:11:44;20.90;60.70
27016;DHT22;14557;0.000;0.000;2023-03-23T02:14:10;20.90;60.70
27016;DHT22;14557;0.000;0.000;2023-03-23T02:16:44;20.90;60.30
27016;DHT22;14557;0.000;0.000;2023-03-23T02:34:41;20.80;60.20
27016;DHT22;14557;0.000;0.000;2023-03-23T02:39:41;20.80;60.30
27016;DHT22;14557;0.000;0.000;2023-03-23T02:42:08;20.80;60.20
27016;DHT22;14557;0.000;0.000;2023-03-23T02:44:35;20.70;60.20
27016;DHT22;14557;0.000;0.000;2023-03-23T02:47:04;20.70;60.00
27016;DHT22;14557;0.000;0.000;2023-03-23T02:49:31;20.70;60.00
27016;DHT22;14557;0.000;0.000;2023-03-23T02:51:58;20.70;60.00
27016;DHT22;14557;0.000;0.000;2023-03-23T02:54:24;20.70;59.90
27016;DHT22;14557;0.000;0.000;2023-03-23T02:56:51;20.70;60.00
27016;DHT22;14557;0.000;0.000;2023-03-23T02:59:18;20.70;59.80
27016;DHT22;14557;0.000;0.000;2023-03-23T03:04:10;20.70;59.80
27016;DHT22;14557;0.000;0.000;2023-03-23T03:11:37;20.60;59.70
27016;DHT22;14557;0.000;0.000;2023-03-23T03:14:05;20.60;59.60
27016;DHT22;14557;0.000;0.000;2023-03-23T03:21:27;20.60;59.60
27016;DHT22;14557;0.000;0.000;2023-03-23T03:23:55;20.60;59.60
27016;DHT22;14557;0.000;0.000;2023-03-23T03:26:21;20.60;59.40
27016;DHT22;14557;0.000;0.000;2023-03-23T03:28:52;20.60;59.40
27016;DHT22;14557;0.000;0.000;2023-03-23T03:31:20;20.60;59.40
27016;DHT22;14557;0.000;0.000;2023-03-23T03:33:46;20.50;59.30
27016;DHT22;14557;0.000;0.000;2023-03-23T03:36:15;20.50;59.20
27016;DHT22;14557;0.000;0.000;2023-03-23T03:38:43;20.50;59.10
27016;DHT22;14557;0.000;0.000;2023-03-23T03:41:09;20.50;58.90
27016;DHT22;14557;0.000;0.000;2023-03-23T03:43:34;20.50;58.80
27016;DHT22;14557;0.000;0.000;2023-03-23T03:46:01;20.50;58.80
27016;DHT22;14557;0.000;0.000;2023-03-23T03:48:26;20.50;58.70
27016;DHT22;14557;0.000;0.000;2023-03-23T03:50:52;20.50;58.60
27016;DHT22;14557;0.000;0.000;2023-03-23T03:53:22;20.50;58.60
27016;DHT22;14557;0.000;0.000;2023-03-23T03:55:47;20.50;58.60
27016;DHT22;14557;0.000;0.000;2023-03-23T03:58:15;20.40;58.50
27016;DHT22;14557;0.000;0.000;2023-03-23T04:00:41;20.50;58.50
27016;DHT22;14557;0.000;0.000;2023-03-23T04:03:07;20.50;58.40
27016;DHT22;14557;0.000;0.000;2023-03-23T04:05:34;20.50;58.30
27016;DHT22;14557;0.000;0.000;2023-03-23T04:08:02;20.40;58.20
27016;DHT22;14557;0.000;0.000;2023-03-23T04:10:29;20.40;58.10
27016;DHT22;14557;0.000;0.000;2023-03-23T04:12:55;20.40;58.00
27016;DHT22;14557;0.000;0.000;2023-03-23T04:15:21;20.40;58.00
27016;DHT22;14557;0.000;0.000;2023-03-23T04:17:46;20.40;58.00
27016;DHT22;14557;0.000;0.000;2023-03-23T04:20:12;20.40;57.80
27016;DHT22;14557;0.000;0.000;2023-03-23T04:22:42;20.40;57.80
27016;DHT22;14557;0.000;0.000;2023-03-23T04:25:09;20.30;57.70
27016;DHT22;14557;0.000;0.000;2023-03-23T04:27:36;20.30;57.60
27016;DHT22;14557;0.000;0.000;2023-03-23T04:30:02;20.30;57.60
27016;DHT22;14557;0.000;0.000;2023-03-23T04:32:28;20.30;57.50
27016;DHT22;14557;0.000;0.000;2023-03-23T04:34:55;20.30;57.60
27016;DHT22;14557;0.000;0.000;2023-03-23T04:37:20;20.30;57.50
27016;DHT22;14557;0.000;0.000;2023-03-23T04:39:46;20.30;57.30
27016;DHT22;14557;0.000;0.000;2023-03-23T04:42:11;20.30;57.10
27016;DHT22;14557;0.000;0.000;2023-03-23T04:44:39;20.30;57.10
27016;DHT22;14557;0.000;0.000;2023-03-23T04:47:04;20.20;57.10
27016;DHT22;14557;0.000;0.000;2023-03-23T04:49:34;20.30;57.10
27016;DHT22;14557;0.000;0.000;2023-03-23T04:52:01;20.30;57.00
27016;DHT22;14557;0.000;0.000;2023-03-23T04:54:27;20.20;56.90
27016;DHT22;14557;0.000;0.000;2023-03-23T04:56:54;20.20;56.80
27016;DHT22;14557;0.000;0.000;2023-03-23T04:59:19;20.20;56.80
27016;DHT22;14557;0.000;0.000;2023-03-23T05:01:46;20.20;56.60
27016;DHT22;14557;0.000;0.000;2023-03-23T05:04:12;20.20;56.60
27016;DHT22;14557;0.000;0.000;2023-03-23T05:06:41;20.20;56.80
27016;DHT22;14557;0.000;0.000;2023-03-23T05:09:11;20.20;56.90
27016;DHT22;14557;0.000;0.000;2023-03-23T05:11:36;20.10;56.70
27016;DHT22;14557;0.000;0.000;2023-03-23T05:14:03;20.10;56.90
27016;DHT22;14557;0.000;0.000;2023-03-23T05:16:28;20.10;56.90
27016;DHT22;14557;0.000;0.000;2023-03-23T05:18:55;20.10;56.90
27016;DHT22;14557;0.000;0.000;2023-03-23T05:21:22;20.10;56.80
27016;DHT22;14557;0.000;0.000;2023-03-23T05:23:48;20.10;56.70
27016;DHT22;14557;0.000;0.000;2023-03-23T05:26:23;20.10;56.50
27016;DHT22;14557;0.000;0.000;2023-03-23T05:28:54;20.10;56.00
27016;DHT22;14557;0.000;0.000;2023-03-23T05:31:21;20.10;56.40
27016;DHT22;14557;0.000;0.000;2023-03-23T05:33:47;20.10;56.50
27016;DHT22;14557;0.000;0.000;2023-03-23T05:36:12;20.10;56.40
27016;DHT22;14557;0.000;0.000;2023-03-23T05:38:42;20.10;56.90
27016;DHT22;14557;0.000;0.000;2023-03-23T05:41:11;20.10;56.20
27016;DHT22;14557;0.000;0.000;2023-03-23T05:43:37;20.00;56.20
27016;DHT22;14557;0.000;0.000;2023-03-23T05:46:02;20.00;56.20
27016;DHT22;14557;0.000;0.000;2023-03-23T05:48:28;20.00;56.10
27016;DHT22;14557;0.000;0.000;2023-03-23T05:50:54;20.00;56.20
27016;DHT22;14557;0.000;0.000;2023-03-23T05:53:20;20.00;56.00
27016;DHT22;14557;0.000;0.000;2023-03-23T05:55:45;20.00;56.20
27016;DHT22;14557;0.000;0.000;2023-03-23T05:58:12;20.00;55.90
27016;DHT22;14557;0.000;0.000;2023-03-23T06:00:37;20.00;55.90
27016;DHT22;14557;0.000;0.000;2023-03-23T06:03:04;19.90;56.00
27016;DHT22;14557;0.000;0.000;2023-03-23T06:05:29;19.90;56.00
27016;DHT22;14557;0.000;0.000;2023-03-23T06:07:55;19.90;56.00
27016;DHT22;14557;0.000;0.000;2023-03-23T06:10:21;19.90;55.80
27016;DHT22;14557;0.000;0.000;2023-03-23T06:12:47;19.90;55.70
27016;DHT22;14557;0.000;0.000;2023-03-23T06:15:12;19.90;55.50
27016;DHT22;14557;0.000;0.000;2023-03-23T06:17:38;19.90;55.50
27016;DHT22;14557;0.000;0.000;2023-03-23T06:20:04;19.90;55.50
27016;DHT22;14557;0.000;0.000;2023-03-23T06:22:36;19.90;55.70
27016;DHT22;14557;0.000;0.000;2023-03-23T06:25:01;19.90;55.60
27016;DHT22;14557;0.000;0.000;2023-03-23T06:27:27;19.80;55.60
27016;DHT22;14557;0.000;0.000;2023-03-23T06:29:54;19.80;55.60
27016;DHT22;14557;0.000;0.000;2023-03-23T06:32:22;19.80;55.50
27016;DHT22;14557;0.000;0.000;2023-03-23T06:34:48;19.80;55.60
27016;DHT22;14557;0.000;0.000;2023-03-23T06:37:13;19.80;55.80
27016;DHT22;14557;0.000;0.000;2023-03-23T06:39:41;19.80;55.70
27016;DHT22;14557;0.000;0.000;2023-03-23T06:42:10;19.80;55.30
27016;DHT22;14557;0.000;0.000;2023-03-23T06:44:39;19.80;55.60
27016;DHT22;14557;0.000;0.000;2023-03-23T06:47:04;19.80;55.70
27016;DHT22;14557;0.000;0.000;2023-03-23T06:49:30;19.80;55.80
27016;DHT22;14557;0.000;0.000;2023-03-23T06:51:57;19.80;55.70
27016;DHT22;14557;0.000;0.000;2023-03-23T06:54:23;19.80;55.70
27016;DHT22;14557;0.000;0.000;2023-03-23T06:56:48;19.70;55.90
27016;DHT22;14557;0.000;0.000;2023-03-23T06:59:14;19.80;55.90
27016;DHT22;14557;0.000;0.000;2023-03-23T07:01:39;19.80;56.00
27016;DHT22;14557;0.000;0.000;2023-03-23T07:04:05;19.70;55.90
27016;DHT22;14557;0.000;0.000;2023-03-23T07:06:31;19.70;56.00
27016;DHT22;14557;0.000;0.000;2023-03-23T07:08:57;19.70;55.90
27016;DHT22;14557;0.000;0.000;2023-03-23T07:11:23;19.70;55.90
27016;DHT22;14557;0.000;0.000;2023-03-23T07:13:49;19.70;55.90
27016;DHT22;14557;0.000;0.000;2023-03-23T07:16:15;19.70;56.00
27016;DHT22;14557;0.000;0.000;2023-03-23T07:18:41;19.80;55.90
27016;DHT22;14557;0.000;0.000;2023-03-23T07:21:07;19.70;55.90
27016;DHT22;14557;0.000;0.000;2023-03-23T07:23:33;19.70;55.60
27016;DHT22;14557;0.000;0.000;2023-03-23T07:25:59;19.70;55.70
27016;DHT22;14557;0.000;0.000;2023-03-23T07:28:24;19.70;55.80
27016;DHT22;14557;0.000;0.000;2023-03-23T07:30:50;19.70;55.70
27016;DHT22;14557;0.000;0.000;2023-03-23T07:33:16;19.70;56.00
27016;DHT22;14557;0.000;0.000;2023-03-23T07:35:42;19.70;55.90
27016;DHT22;14557;0.000;0.000;2023-03-23T07:38:08;19.70;55.80
27016;DHT22;14557;0.000;0.000;2023-03-23T07:40:34;19.70;55.80
27016;DHT22;14557;0.000;0.000;2023-03-23T07:43:00;19.70;56.10
27016;DHT22;14557;0.000;0.000;2023-03-23T07:45:26;19.70;55.90
27016;DHT22;14557;0.000;0.000;2023-03-23T07:47:52;19.70;56.40
27016;DHT22;14557;0.000;0.000;2023-03-23T07:50:18;19.70;55.70
27016;DHT22;14557;0.000;0.000;2023-03-23T07:52:46;19.70;56.30
27016;DHT22;14557;0.000;0.000;2023-03-23T07:55:12;19.70;56.50
27016;DHT22;14557;0.000;0.000;2023-03-23T07:57:45;19.70;56.50
27016;DHT22;14557;0.000;0.000;2023-03-23T08:00:12;19.70;56.60
27016;DHT22;14557;0.000;0.000;2023-03-23T08:02:44;19.70;56.50
27016;DHT22;14557;0.000;0.000;2023-03-23T08:05:10;19.70;56.60
27016;DHT22;14557;0.000;0.000;2023-03-23T08:07:35;19.70;56.30
27016;DHT22;14557;0.000;0.000;2023-03-23T08:10:01;19.70;56.30
27016;DHT22;14557;0.000;0.000;2023-03-23T08:12:27;19.70;56.20
27016;DHT22;14557;0.000;0.000;2023-03-23T08:14:53;19.70;56.10
27016;DHT22;14557;0.000;0.000;2023-03-23T08:17:19;19.70;55.90
27016;DHT22;14557;0.000;0.000;2023-03-23T08:19:45;19.80;59.70
27016;DHT22;14557;0.000;0.000;2023-03-23T08:22:11;19.90;63.20
27016;DHT22;14557;0.000;0.000;2023-03-23T08:24:37;20.00;61.70
27016;DHT22;14557;0.000;0.000;2023-03-23T08:27:03;20.10;64.90
27016;DHT22;14557;0.000;0.000;2023-03-23T08:29:28;20.30;64.60
27016;DHT22;14557;0.000;0.000;2023-03-23T08:31:54;20.40;64.90
27016;DHT22;14557;0.000;0.000;2023-03-23T08:34:20;20.50;61.80
27016;DHT22;14557;0.000;0.000;2023-03-23T08:36:46;20.50;60.50
27016;DHT22;14557;0.000;0.000;2023-03-23T08:39:12;20.50;59.80
27016;DHT22;14557;0.000;0.000;2023-03-23T08:41:40;20.50;59.40
27016;DHT22;14557;0.000;0.000;2023-03-23T08:44:05;20.40;58.90
27016;DHT22;14557;0.000;0.000;2023-03-23T08:46:31;20.50;58.90
27016;DHT22;14557;0.000;0.000;2023-03-23T08:48:56;20.50;58.40
27016;DHT22;14557;0.000;0.000;2023-03-23T08:51:22;20.50;57.80
27016;DHT22;14557;0.000;0.000;2023-03-23T08:53:48;20.50;57.90
27016;DHT22;14557;0.000;0.000;2023-03-23T08:56:14;20.50;57.20
27016;DHT22;14557;0.000;0.000;2023-03-23T08:58:39;20.50;56.50
27016;DHT22;14557;0.000;0.000;2023-03-23T09:01:05;20.50;59.50
27016;DHT22;14557;0.000;0.000;2023-03-23T09:03:32;20.50;63.50
27016;DHT22;14557;0.000;0.000;2023-03-23T09:05:58;20.60;59.70
27016;DHT22;14557;0.000;0.000;2023-03-23T09:08:25;20.60;61.90
27016;DHT22;14557;0.000;0.000;2023-03-23T09:10:51;20.60;61.60
27016;DHT22;14557;0.000;0.000;2023-03-23T09:13:17;20.60;57.50
27016;DHT22;14557;0.000;0.000;2023-03-23T09:15:42;20.60;58.70
27016;DHT22;14557;0.000;0.000;2023-03-23T09:18:08;20.60;57.90
27016;DHT22;14557;0.000;0.000;2023-03-23T09:20:34;20.60;58.40
27016;DHT22;14557;0.000;0.000;2023-03-23T09:23:02;20.60;56.80
27016;DHT22;14557;0.000;0.000;2023-03-23T09:25:28;20.70;56.00
27016;DHT22;14557;0.000;0.000;2023-03-23T09:27:54;20.70;55.70
27016;DHT22;14557;0.000;0.000;2023-03-23T09:30:25;20.80;58.70
27016;DHT22;14557;0.000;0.000;2023-03-23T09:32:52;20.90;56.40
27016;DHT22;14557;0.000;0.000;2023-03-23T09:35:18;20.90;56.50
27016;DHT22;14557;0.000;0.000;2023-03-23T09:37:47;21.00;55.50
27016;DHT22;14557;0.000;0.000;2023-03-23T09:40:15;21.00;55.10
27016;DHT22;14557;0.000;0.000;2023-03-23T09:42:56;21.10;55.10
27016;DHT22;14557;0.000;0.000;2023-03-23T09:45:25;21.10;55.10
27016;DHT22;14557;0.000;0.000;2023-03-23T09:50:40;21.20;54.50
27016;DHT22;14557;0.000;0.000;2023-03-23T09:53:15;21.30;54.40
27016;DHT22;14557;0.000;0.000;2023-03-23T09:55:41;21.30;54.20
27016;DHT22;14557;0.000;0.000;2023-03-23T10:00:58;21.40;54.00
27016;DHT22;14557;0.000;0.000;2023-03-23T10:03:36;21.50;53.90
27016;DHT22;14557;0.000;0.000;2023-03-23T10:06:02;21.50;53.90
27016;DHT22;14557;0.000;0.000;2023-03-23T10:08:29;21.50;53.50
27016;DHT22;14557;0.000;0.000;2023-03-23T10:13:42;21.60;53.30
27016;DHT22;14557;0.000;0.000;2023-03-23T10:16:09;21.60;53.20
27016;DHT22;14557;0.000;0.000;2023-03-23T10:18:43;21.60;53.10
27016;DHT22;14557;0.000;0.000;2023-03-23T10:21:14;21.60;52.90
27016;DHT22;14557;0.000;0.000;2023-03-23T10:23:52;21.50;53.00
27016;DHT22;14557;0.000;0.000;2023-03-23T10:28:59;21.50;54.50
27016;DHT22;14557;0.000;0.000;2023-03-23T10:31:31;21.40;54.70
27016;DHT22;14557;0.000;0.000;2023-03-23T10:33:59;21.40;55.00
27016;DHT22;14557;0.000;0.000;2023-03-23T10:36:34;21.40;54.60
27016;DHT22;14557;0.000;0.000;2023-03-23T10:41:33;21.40;54.10
27016;DHT22;14557;0.000;0.000;2023-03-23T10:43:59;21.40;53.70
27016;DHT22;14557;0.000;0.000;2023-03-23T10:46:44;21.40;53.70
27016;DHT22;14557;0.000;0.000;2023-03-23T10:49:17;21.40;53.50
27016;DHT22;14557;0.000;0.000;2023-03-23T10:51:44;21.40;53.30
27016;DHT22;14557;0.000;0.000;2023-03-23T10:54:12;21.60;53.60
27016;DHT22;14557;0.000;0.000;2023-03-23T10:56:38;21.70;53.40
27016;DHT22;14557;0.000;0.000;2023-03-23T10:59:21;21.80;52.90
27016;DHT22;14557;0.000;0.000;2023-03-23T11:01:52;21.80;52.60
27016;DHT22;14557;0.000;0.000;2023-03-23T11:04:19;21.80;52.60
27016;DHT22;14557;0.000;0.000;2023-03-23T11:06:46;21.70;53.40
27016;DHT22;14557;0.000;0.000;2023-03-23T11:09:15;21.70;54.10
27016;DHT22;14557;0.000;0.000;2023-03-23T11:11:49;21.70;54.60
27016;DHT22;14557;0.000;0.000;2023-03-23T11:14:17;21.70;54.60
27016;DHT22;14557;0.000;0.000;2023-03-23T11:16:45;21.70;54.60
27016;DHT22;14557;0.000;0.000;2023-03-23T11:19:12;21.70;54.50
27016;DHT22;14557;0.000;0.000;2023-03-23T11:21:39;21.70;53.70
27016;DHT22;14557;0.000;0.000;2023-03-23T11:24:04;21.70;55.00
27016;DHT22;14557;0.000;0.000;2023-03-23T11:26:31;21.70;54.90
27016;DHT22;14557;0.000;0.000;2023-03-23T11:29:17;21.60;54.60
27016;DHT22;14557;0.000;0.000;2023-03-23T11:32:01;21.60;54.70
27016;DHT22;14557;0.000;0.000;2023-03-23T11:34:32;21.60;54.50
27016;DHT22;14557;0.000;0.000;2023-03-23T11:39:52;21.60;54.70
27016;DHT22;14557;0.000;0.000;2023-03-23T11:42:21;21.60;54.50
27016;DHT22;14557;0.000;0.000;2023-03-23T11:44:47;21.60;54.40
27016;DHT22;14557;0.000;0.000;2023-03-23T11:47:16;21.60;54.40
27016;DHT22;14557;0.000;0.000;2023-03-23T11:49:52;21.60;54.00
27016;DHT22;14557;0.000;0.000;2023-03-23T11:53:22;21.60;54.00
27016;DHT22;14557;0.000;0.000;2023-03-23T11:57:46;21.60;54.10
27016;DHT22;14557;0.000;0.000;2023-03-23T12:00:13;21.60;54.00
27016;DHT22;14557;0.000;0.000;2023-03-23T12:07:40;21.70;52.70
27016;DHT22;14557;0.000;0.000;2023-03-23T12:10:25;21.70;53.00
27016;DHT22;14557;0.000;0.000;2023-03-23T12:27:55;21.70;53.60
27016;DHT22;14557;0.000;0.000;2023-03-23T12:30:39;21.70;52.70
27016;DHT22;14557;0.000;0.000;2023-03-23T12:48:44;21.70;53.60
27016;DHT22;14557;0.000;0.000;2023-03-23T12:51:15;21.70;53.40
27016;DHT22;14557;0.000;0.000;2023-03-23T12:56:33;21.70;55.90
27016;DHT22;14557;0.000;0.000;2023-03-23T13:01:45;21.70;54.40
27016;DHT22;14557;0.000;0.000;2023-03-23T13:04:21;21.80;53.90
27016;DHT22;14557;0.000;0.000;2023-03-23T13:06:48;21.80;53.20
27016;DHT22;14557;0.000;0.000;2023-03-23T13:09:22;21.80;54.40
27016;DHT22;14557;0.000;0.000;2023-03-23T13:11:49;21.80;55.30
27016;DHT22;14557;0.000;0.000;2023-03-23T13:14:21;21.80;55.10
27016;DHT22;14557;0.000;0.000;2023-03-23T13:22:07;21.80;58.10
27016;DHT22;14557;0.000;0.000;2023-03-23T13:24:36;21.80;58.00
27016;DHT22;14557;0.000;0.000;2023-03-23T13:27:04;21.80;59.90
27016;DHT22;14557;0.000;0.000;2023-03-23T13:29:30;21.80;59.00
27016;DHT22;14557;0.000;0.000;2023-03-23T13:32:09;21.90;56.90
27016;DHT22;14557;0.000;0.000;2023-03-23T13:34:36;21.90;59.60
27016;DHT22;14557;0.000;0.000;2023-03-23T13:37:03;21.90;58.40
27016;DHT22;14557;0.000;0.000;2023-03-23T13:39:34;21.90;58.90
27016;DHT22;14557;0.000;0.000;2023-03-23T13:42:03;21.90;64.60
27016;DHT22;14557;0.000;0.000;2023-03-23T13:49:58;22.00;60.50
27016;DHT22;14557;0.000;0.000;2023-03-23T13:54:52;22.10;58.80
27016;DHT22;14557;0.000;0.000;2023-03-23T13:57:23;22.30;67.10
27016;DHT22;14557;0.000;0.000;2023-03-23T13:59:54;22.30;66.40
27016;DHT22;14557;0.000;0.000;2023-03-23T14:02:31;22.30;63.70
27016;DHT22;14557;0.000;0.000;2023-03-23T14:05:07;22.20;59.70
27016;DHT22;14557;0.000;0.000;2023-03-23T14:07:50;22.20;59.30
27016;DHT22;14557;0.000;0.000;2023-03-23T14:10:16;22.20;58.70
27016;DHT22;14557;0.000;0.000;2023-03-23T14:12:43;22.20;57.70
27016;DHT22;14557;0.000;0.000;2023-03-23T14:15:11;22.10;57.00
27016;DHT22;14557;0.000;0.000;2023-03-23T14:17:41;22.10;56.30
27016;DHT22;14557;0.000;0.000;2023-03-23T14:20:30;22.00;56.60
27016;DHT22;14557;0.000;0.000;2023-03-23T14:22:57;22.00;56.60
27016;DHT22;14557;0.000;0.000;2023-03-23T14:25:26;22.00;55.90
27016;DHT22;14557;0.000;0.000;2023-03-23T14:27:52;22.00;55.90
27016;DHT22;14557;0.000;0.000;2023-03-23T14:30:19;22.00;55.70
27016;DHT22;14557;0.000;0.000;2023-03-23T14:32:45;21.90;55.60
27016;DHT22;14557;0.000;0.000;2023-03-23T14:35:17;21.90;55.40
27016;DHT22;14557;0.000;0.000;2023-03-23T14:37:44;21.90;55.50
27016;DHT22;14557;0.000;0.000;2023-03-23T14:40:12;21.90;55.50
27016;DHT22;14557;0.000;0.000;2023-03-23T14:42:39;21.90;55.40
27016;DHT22;14557;0.000;0.000;2023-03-23T14:45:05;21.90;55.50
27016;DHT22;14557;0.000;0.000;2023-03-23T14:49:57;21.90;55.30
27016;DHT22;14557;0.000;0.000;2023-03-23T14:52:28;21.90;54.90
27016;DHT22;14557;0.000;0.000;2023-03-23T14:54:53;21.90;54.90
27016;DHT22;14557;0.000;0.000;2023-03-23T14:57:20;21.90;54.80
27016;DHT22;14557;0.000;0.000;2023-03-23T14:59:51;21.90;54.40
27016;DHT22;14557;0.000;0.000;2023-03-23T15:02:20;22.00;54.50
27016;DHT22;14557;0.000;0.000;2023-03-23T15:04:47;22.00;54.30
27016;DHT22;14557;0.000;0.000;2023-03-23T15:07:14;22.00;54.40
27016;DHT22;14557;0.000;0.000;2023-03-23T15:09:41;22.00;54.50
27016;DHT22;14557;0.000;0.000;2023-03-23T15:12:11;22.10;54.80
27016;DHT22;14557;0.000;0.000;2023-03-23T15:14:46;22.10;56.70
27016;DHT22;14557;0.000;0.000;2023-03-23T15:17:19;22.10;56.10
27016;DHT22;14557;0.000;0.000;2023-03-23T15:19:45;22.10;56.30
27016;DHT22;14557;0.000;0.000;2023-03-23T15:22:27;22.10;56.30
27016;DHT22;14557;0.000;0.000;2023-03-23T15:27:33;22.20;56.10
27016;DHT22;14557;0.000;0.000;2023-03-23T15:30:00;22.20;55.90
27016;DHT22;14557;0.000;0.000;2023-03-23T15:32:38;22.20;56.20
27016;DHT22;14557;0.000;0.000;2023-03-23T15:35:09;22.10;56.20
27016;DHT22;14557;0.000;0.000;2023-03-23T15:37:38;22.10;56.00
27016;DHT22;14557;0.000;0.000;2023-03-23T15:40:04;22.10;57.00
27016;DHT22;14557;0.000;0.000;2023-03-23T15:42:31;22.10;56.30
27016;DHT22;14557;0.000;0.000;2023-03-23T15:47:44;22.00;54.50
27016;DHT22;14557;0.000;0.000;2023-03-23T15:52:45;22.00;52.50
27016;DHT22;14557;0.000;0.000;2023-03-23T15:55:27;22.00;52.10
27016;DHT22;14557;0.000;0.000;2023-03-23T15:57:57;21.90;52.20
27016;DHT22;14557;0.000;0.000;2023-03-23T16:00:26;21.90;52.00
27016;DHT22;14557;0.000;0.000;2023-03-23T16:02:56;21.90;51.60
27016;DHT22;14557;0.000;0.000;2023-03-23T16:05:23;21.90;52.10
27016;DHT22;14557;0.000;0.000;2023-03-23T16:07:49;21.90;52.40
27016;DHT22;14557;0.000;0.000;2023-03-23T16:10:19;21.90;52.40
27016;DHT22;14557;0.000;0.000;2023-03-23T16:12:45;21.90;52.60
27016;DHT22;14557;0.000;0.000;2023-03-23T16:15:11;21.90;52.80
27016;DHT22;14557;0.000;0.000;2023-03-23T16:17:37;21.90;52.60
27016;DHT22;14557;0.000;0.000;2023-03-23T16:20:08;21.90;52.80
27016;DHT22;14557;0.000;0.000;2023-03-23T16:22:34;21.90;52.80
27016;DHT22;14557;0.000;0.000;2023-03-23T16:25:00;21.90;52.80
27016;DHT22;14557;0.000;0.000;2023-03-23T16:27:26;21.90;54.00
27016;DHT22;14557;0.000;0.000;2023-03-23T16:29:51;21.90;54.10
27016;DHT22;14557;0.000;0.000;2023-03-23T16:32:17;21.90;53.70
27016;DHT22;14557;0.000;0.000;2023-03-23T16:34:43;21.90;56.00
27016;DHT22;14557;0.000;0.000;2023-03-23T16:37:09;21.90;55.00
27016;DHT22;14557;0.000;0.000;2023-03-23T16:39:36;22.00;55.00
27016;DHT22;14557;0.000;0.000;2023-03-23T16:42:02;22.00;58.30
27016;DHT22;14557;0.000;0.000;2023-03-23T16:44:27;22.00;56.60
27016;DHT22;14557;0.000;0.000;2023-03-23T16:46:53;22.00;56.50
27016;DHT22;14557;0.000;0.000;2023-03-23T16:49:18;22.00;56.10
27016;DHT22;14557;0.000;0.000;2023-03-23T16:51:44;22.00;56.00
27016;DHT22;14557;0.000;0.000;2023-03-23T16:54:10;22.10;57.40
27016;DHT22;14557;0.000;0.000;2023-03-23T16:56:36;22.10;57.60
27016;DHT22;14557;0.000;0.000;2023-03-23T16:59:02;22.10;61.90
27016;DHT22;14557;0.000;0.000;2023-03-23T17:01:27;22.10;60.30
27016;DHT22;14557;0.000;0.000;2023-03-23T17:03:53;22.10;60.40
27016;DHT22;14557;0.000;0.000;2023-03-23T17:06:19;22.10;57.20
27016;DHT22;14557;0.000;0.000;2023-03-23T17:08:45;22.10;56.50
27016;DHT22;14557;0.000;0.000;2023-03-23T17:11:11;22.20;56.20
27016;DHT22;14557;0.000;0.000;2023-03-23T17:13:36;22.20;56.10
27016;DHT22;14557;0.000;0.000;2023-03-23T17:16:02;22.20;56.00
27016;DHT22;14557;0.000;0.000;2023-03-23T17:18:28;22.20;56.60
27016;DHT22;14557;0.000;0.000;2023-03-23T17:20:53;22.10;56.40
27016;DHT22;14557;0.000;0.000;2023-03-23T17:23:19;22.20;56.30
27016;DHT22;14557;0.000;0.000;2023-03-23T17:25:45;22.10;56.20
27016;DHT22;14557;0.000;0.000;2023-03-23T17:28:11;22.10;56.30
27016;DHT22;14557;0.000;0.000;2023-03-23T17:30:40;22.10;56.20
27016;DHT22;14557;0.000;0.000;2023-03-23T17:33:06;22.10;56.30
27016;DHT22;14557;0.000;0.000;2023-03-23T17:35:32;22.10;56.70
27016;DHT22;14557;0.000;0.000;2023-03-23T17:37:57;22.10;56.50
27016;DHT22;14557;0.000;0.000;2023-03-23T17:40:23;22.20;58.10
27016;DHT22;14557;0.000;0.000;2023-03-23T17:42:48;22.20;60.70
27016;DHT22;14557;0.000;0.000;2023-03-23T17:45:14;22.20;58.30